createdAt,value
2023-01-18T00:01:44.006Z,49.30
2023-01-18T00:04:29.299Z,50.57
2023-01-18T00:07:14.176Z,47.50
2023-01-18T00:09:59.050Z,50.97
2023-01-18T00:12:45.214Z,48.30
2023-01-18T00:15:35.183Z,45.73
2023-01-18T00:18:20.450Z,53.37
2023-01-18T00:21:09.120Z,49.60
2023-01-18T00:23:57.529Z,44.23
2023-01-18T00:26:42.580Z,50.60
2023-01-18T00:29:30.372Z,47.83
2023-01-18T00:32:15.785Z,48.53
2023-01-18T00:35:01.371Z,49.93
2023-01-18T00:37:47.741Z,45.27
2023-01-18T00:40:32.822Z,50.37
2023-01-18T00:43:18.345Z,45.20
2023-01-18T00:46:03.901Z,48.53
2023-01-18T00:48:49.893Z,46.50
2023-01-18T00:51:34.891Z,45.63
2023-01-18T00:54:19.854Z,48.23
2023-01-18T00:57:05.209Z,48.40
2023-01-18T00:59:50.544Z,48.00
2023-01-18T01:02:36.156Z,42.27
2023-01-18T01:05:23.866Z,50.57
2023-01-18T01:08:10.068Z,50.73
2023-01-18T01:11:08.718Z,44.57
2023-01-18T01:13:53.543Z,49.53
2023-01-18T01:16:38.492Z,45.30
2023-01-18T01:19:23.888Z,42.13
2023-01-18T01:22:08.879Z,48.40
2023-01-18T01:24:53.689Z,49.23
2023-01-18T01:27:38.485Z,43.23
2023-01-18T01:30:23.545Z,44.73
2023-01-18T01:33:08.909Z,44.37
2023-01-18T01:35:58.542Z,43.43
2023-01-18T01:38:44.052Z,48.17
2023-01-18T01:41:31.781Z,46.93
2023-01-18T01:44:19.751Z,46.13
2023-01-18T01:47:13.001Z,46.07
2023-01-18T01:50:02.557Z,44.40
2023-01-18T01:52:48.558Z,47.13
2023-01-18T01:55:37.289Z,50.43
2023-01-18T01:58:27.460Z,47.93
2023-01-18T02:01:12.744Z,49.90
2023-01-18T02:04:00.944Z,46.13
2023-01-18T02:06:46.540Z,44.50
2023-01-18T02:09:31.895Z,46.17
2023-01-18T02:12:16.958Z,45.73
2023-01-18T02:15:02.948Z,46.43
2023-01-18T02:18:00.092Z,45.23
2023-01-18T02:20:56.446Z,48.50
2023-01-18T02:24:00.650Z,47.30
2023-01-18T02:27:00.568Z,40.87
2023-01-18T02:30:00.591Z,46.27
2023-01-18T02:32:57.442Z,41.53
2023-01-18T02:35:47.648Z,42.87
2023-01-18T02:38:37.915Z,42.07
2023-01-18T02:41:38.850Z,48.17
2023-01-18T02:44:30.285Z,45.37
2023-01-18T02:47:15.916Z,49.73
2023-01-18T02:50:02.562Z,54.23
2023-01-18T02:52:47.648Z,47.50
2023-01-18T02:55:55.877Z,43.60
2023-01-18T02:58:46.894Z,47.57
2023-01-18T03:01:43.973Z,41.97
2023-01-18T03:04:34.246Z,43.40
2023-01-18T03:07:25.673Z,45.20
2023-01-18T03:10:13.251Z,50.43
2023-01-18T03:13:15.618Z,45.87
2023-01-18T03:16:09.452Z,50.00
2023-01-18T03:19:11.107Z,48.13
2023-01-18T03:21:56.667Z,43.50
2023-01-18T03:24:43.942Z,44.10
2023-01-18T03:27:28.849Z,41.93
2023-01-18T03:30:14.410Z,43.10
2023-01-18T03:32:59.910Z,45.57
2023-01-18T03:35:46.254Z,44.00
2023-01-18T03:38:34.033Z,47.40
2023-01-18T03:41:21.883Z,43.97
2023-01-18T03:44:11.769Z,41.53
2023-01-18T03:46:57.359Z,42.50
2023-01-18T03:49:42.471Z,45.07
2023-01-18T03:52:38.834Z,40.43
2023-01-18T03:55:31.638Z,44.17
2023-01-18T03:58:22.610Z,43.80
2023-01-18T04:01:07.840Z,48.40
2023-01-18T04:03:53.141Z,43.13
2023-01-18T04:06:38.009Z,43.00
2023-01-18T04:09:22.870Z,41.90
2023-01-18T04:12:07.955Z,47.47
2023-01-18T04:14:53.835Z,37.07
2023-01-18T04:17:39.148Z,36.57
2023-01-18T04:20:24.593Z,40.77
2023-01-18T04:23:09.905Z,39.53
2023-01-18T04:25:54.956Z,36.07
2023-01-18T04:28:40.242Z,38.17
2023-01-18T04:31:25.135Z,38.53
2023-01-18T04:34:10.421Z,37.37
2023-01-18T04:36:55.269Z,37.20
2023-01-18T04:39:40.206Z,37.20
2023-01-18T04:42:25.999Z,39.30
2023-01-18T04:45:11.279Z,42.97
2023-01-18T04:47:56.308Z,40.10
2023-01-18T04:50:41.170Z,38.67
2023-01-18T04:53:26.558Z,36.97
2023-01-18T04:56:11.894Z,36.43
2023-01-18T04:58:57.140Z,34.77
2023-01-18T05:01:42.408Z,36.37
2023-01-18T05:04:27.422Z,37.50
2023-01-18T05:07:12.231Z,39.67
2023-01-18T05:09:57.052Z,36.10
2023-01-18T05:12:41.857Z,39.93
2023-01-18T05:15:26.651Z,39.60
2023-01-18T05:18:11.481Z,35.40
2023-01-18T05:20:56.407Z,38.53
2023-01-18T05:23:42.008Z,41.97
2023-01-18T05:26:27.284Z,39.60
2023-01-18T05:29:12.280Z,40.33
2023-01-18T05:31:57.340Z,39.27
2023-01-18T05:34:42.976Z,37.70
2023-01-18T05:37:28.118Z,41.80
2023-01-18T05:40:13.661Z,38.53
2023-01-18T05:42:59.123Z,40.83
2023-01-18T05:45:44.148Z,38.43
2023-01-18T05:48:29.531Z,38.23
2023-01-18T05:51:14.607Z,37.73
2023-01-18T05:54:00.229Z,38.07
2023-01-18T05:56:45.601Z,39.03
2023-01-18T05:59:30.344Z,41.53
2023-01-18T06:02:15.396Z,41.57
2023-01-18T06:05:00.457Z,35.90
2023-01-18T06:07:45.365Z,37.13
2023-01-18T06:10:31.015Z,39.17
2023-01-18T06:13:16.053Z,40.23
2023-01-18T06:16:02.102Z,38.87
2023-01-18T06:18:47.225Z,39.27
2023-01-18T06:21:32.073Z,39.77
2023-01-18T06:24:16.896Z,39.57
2023-01-18T06:27:01.811Z,38.63
2023-01-18T06:29:46.632Z,42.30
2023-01-18T06:32:31.972Z,42.07
2023-01-18T06:35:16.951Z,42.33
2023-01-18T06:38:04.045Z,44.50
2023-01-18T06:40:49.270Z,40.00
2023-01-18T06:43:34.036Z,41.70
2023-01-18T06:46:18.821Z,41.33
2023-01-18T06:49:03.763Z,107.73
2023-01-18T06:51:48.634Z,43.80
2023-01-18T06:54:34.040Z,45.40
2023-01-18T06:57:18.702Z,43.07
2023-01-18T07:00:08.166Z,40.17
2023-01-18T07:02:53.399Z,47.60
2023-01-18T07:05:38.211Z,41.73
2023-01-18T07:08:25.946Z,41.33
2023-01-18T07:11:13.182Z,41.27
2023-01-18T07:13:58.427Z,46.57
2023-01-18T07:16:43.833Z,40.47
2023-01-18T07:19:29.156Z,44.13
2023-01-18T07:22:14.579Z,40.17
2023-01-18T07:24:59.704Z,42.70
2023-01-18T07:27:44.687Z,41.53
2023-01-18T07:30:29.866Z,45.77
2023-01-18T07:33:14.771Z,43.60
2023-01-18T07:35:59.963Z,45.17
2023-01-18T07:38:45.073Z,37.80
2023-01-18T07:41:31.113Z,47.43
2023-01-18T07:44:16.566Z,42.63
2023-01-18T07:47:01.365Z,45.47
2023-01-18T07:49:46.808Z,42.30
2023-01-18T07:52:32.263Z,46.73
2023-01-18T07:55:17.198Z,43.57
2023-01-18T07:58:02.142Z,45.90
2023-01-18T08:00:47.702Z,44.90
2023-01-18T08:03:33.459Z,41.13
2023-01-18T08:06:24.171Z,50.97
2023-01-18T08:09:09.082Z,47.77
2023-01-18T08:11:53.991Z,43.63
2023-01-18T08:14:39.929Z,46.27
2023-01-18T08:17:25.377Z,46.70
2023-01-18T08:20:10.832Z,42.17
2023-01-18T08:22:57.361Z,44.90
2023-01-18T08:25:43.771Z,43.97
2023-01-18T08:28:29.170Z,41.80
2023-01-18T08:31:17.570Z,43.50
2023-01-18T08:34:03.015Z,41.43
2023-01-18T08:36:48.295Z,40.97
2023-01-18T08:39:33.316Z,44.03
2023-01-18T08:42:18.147Z,41.93
2023-01-18T08:45:03.298Z,47.30
2023-01-18T08:47:48.366Z,51.33
2023-01-18T08:50:35.007Z,54.30
2023-01-18T08:53:20.318Z,52.70
2023-01-18T08:56:06.022Z,44.03
2023-01-18T08:58:51.168Z,48.03
2023-01-18T09:01:36.151Z,46.77
2023-01-18T09:04:21.364Z,44.80
2023-01-18T09:07:06.640Z,44.67
2023-01-18T09:09:51.564Z,43.73
2023-01-18T09:12:38.321Z,44.23
2023-01-18T09:15:23.253Z,46.20
2023-01-18T09:18:08.258Z,55.00
2023-01-18T09:20:53.747Z,48.23
2023-01-18T09:23:40.529Z,48.23
2023-01-18T09:26:26.280Z,43.77
2023-01-18T09:29:11.930Z,45.87
2023-01-18T09:31:56.931Z,50.70
2023-01-18T09:34:41.684Z,47.43
2023-01-18T09:37:26.575Z,42.43
2023-01-18T09:40:17.846Z,43.47
2023-01-18T09:43:03.335Z,49.63
2023-01-18T09:45:48.680Z,45.93
2023-01-18T09:48:41.393Z,46.00
2023-01-18T09:51:42.326Z,53.23
2023-01-18T09:54:51.022Z,48.63
2023-01-18T09:57:47.281Z,46.00
2023-01-18T10:00:36.770Z,44.57
2023-01-18T10:03:54.331Z,49.10
2023-01-18T10:06:54.231Z,53.37
2023-01-18T10:09:42.507Z,50.90
2023-01-18T10:12:44.123Z,44.23
2023-01-18T10:15:31.898Z,45.70
2023-01-18T10:18:18.601Z,45.23
2023-01-18T10:21:07.195Z,50.10
2023-01-18T10:24:30.119Z,43.33
2023-01-18T10:27:24.225Z,53.13
2023-01-18T10:30:23.911Z,42.80
2023-01-18T10:33:24.959Z,45.87
2023-01-18T10:36:24.570Z,48.07
2023-01-18T10:39:46.650Z,49.90
2023-01-18T10:42:58.859Z,47.37
2023-01-18T10:45:44.263Z,46.37
2023-01-18T10:48:32.039Z,47.30
2023-01-18T10:51:36.202Z,51.87
2023-01-18T10:54:25.998Z,49.80
2023-01-18T10:57:21.005Z,50.97
2023-01-18T11:00:17.483Z,49.27
2023-01-18T11:03:04.908Z,45.23
2023-01-18T11:05:50.257Z,44.83
2023-01-18T11:08:35.959Z,46.03
2023-01-18T11:11:28.797Z,45.03
2023-01-18T11:14:31.516Z,46.90
2023-01-18T11:17:16.380Z,48.50
2023-01-18T11:20:06.866Z,49.47
2023-01-18T11:22:58.408Z,43.70
2023-01-18T11:25:52.887Z,48.10
2023-01-18T11:28:45.943Z,47.03
2023-01-18T11:31:44.120Z,43.03
2023-01-18T11:34:35.760Z,45.30
2023-01-18T11:37:37.281Z,44.90
2023-01-18T11:40:28.217Z,43.93
2023-01-18T11:43:25.052Z,43.33
2023-01-18T11:46:31.391Z,43.27
2023-01-18T11:49:27.684Z,44.17
2023-01-18T11:52:23.783Z,43.53
2023-01-18T11:55:23.316Z,42.83
2023-01-18T11:58:35.371Z,44.40
2023-01-18T12:01:29.621Z,45.87
2023-01-18T12:04:36.338Z,42.27
2023-01-18T12:07:45.342Z,43.07
2023-01-18T12:10:45.538Z,36.80
2023-01-18T12:14:00.800Z,38.87
2023-01-18T12:17:04.001Z,38.73
2023-01-18T12:20:05.925Z,37.60
2023-01-18T12:23:15.699Z,35.87
2023-01-18T12:26:22.493Z,35.67
2023-01-18T12:29:15.864Z,33.33
2023-01-18T12:32:31.701Z,31.17
2023-01-18T12:35:53.739Z,30.77
2023-01-18T12:38:46.314Z,34.20
2023-01-18T12:41:42.368Z,31.63
2023-01-18T12:44:31.011Z,30.97
2023-01-18T12:47:37.348Z,33.47
2023-01-18T12:50:31.793Z,32.27
2023-01-18T12:53:34.851Z,31.47
2023-01-18T12:56:37.530Z,33.23
2023-01-18T12:59:44.922Z,30.07
2023-01-18T13:02:38.656Z,32.97
2023-01-18T13:05:45.934Z,30.10
2023-01-18T13:08:53.644Z,28.67
2023-01-18T13:11:42.149Z,28.63
2023-01-18T13:14:38.148Z,29.17
2023-01-18T13:17:35.277Z,26.23
2023-01-18T13:20:45.586Z,29.37
2023-01-18T13:23:36.206Z,31.40
2023-01-18T13:26:30.566Z,29.90
2023-01-18T13:29:20.844Z,26.40
2023-01-18T13:32:24.128Z,26.03
2023-01-18T13:35:21.455Z,26.43
2023-01-18T13:38:17.923Z,29.10
2023-01-18T13:41:06.841Z,26.23
2023-01-18T13:43:52.046Z,28.03
2023-01-18T13:46:37.238Z,31.13
2023-01-18T13:49:37.615Z,25.77
2023-01-18T13:52:31.821Z,27.43
2023-01-18T13:55:25.609Z,27.60
2023-01-18T13:58:26.244Z,32.10
2023-01-18T14:01:21.747Z,30.33
2023-01-18T14:04:21.252Z,28.60
2023-01-18T14:07:07.961Z,30.17
2023-01-18T14:09:53.577Z,29.93
2023-01-18T14:12:49.917Z,30.87
2023-01-18T14:15:49.684Z,31.07
2023-01-18T14:18:35.084Z,28.97
2023-01-18T14:21:25.118Z,29.70
2023-01-18T14:24:22.317Z,28.30
2023-01-18T14:27:14.070Z,29.03
2023-01-18T14:30:07.083Z,28.17
2023-01-18T14:33:01.570Z,30.53
2023-01-18T14:35:57.559Z,27.90
2023-01-18T14:38:42.687Z,27.87
2023-01-18T14:41:28.332Z,29.07
2023-01-18T14:44:16.614Z,29.67
2023-01-18T14:47:10.821Z,26.70
2023-01-18T14:50:04.806Z,26.87
2023-01-18T14:52:52.461Z,30.27
2023-01-18T14:55:38.004Z,30.97
2023-01-18T14:58:23.115Z,30.93
2023-01-18T15:01:33.790Z,31.80
2023-01-18T15:04:22.088Z,29.27
2023-01-18T15:07:14.893Z,28.93
2023-01-18T15:10:00.255Z,33.50
2023-01-18T15:12:56.714Z,29.73
2023-01-18T15:15:42.809Z,32.60
2023-01-18T15:18:29.360Z,31.07
2023-01-18T15:21:35.272Z,30.57
2023-01-18T15:24:23.519Z,31.17
2023-01-18T15:27:14.826Z,33.03
2023-01-18T15:30:01.615Z,31.67
2023-01-18T15:32:50.294Z,29.27
2023-01-18T15:35:35.999Z,31.70
2023-01-18T15:38:21.323Z,35.57
2023-01-18T15:41:11.302Z,34.03
2023-01-18T15:43:56.679Z,36.23
2023-01-18T15:46:42.026Z,33.90
2023-01-18T15:49:28.117Z,36.57
2023-01-18T15:52:13.478Z,35.50
2023-01-18T15:54:58.571Z,34.80
2023-01-18T15:57:53.809Z,32.83
2023-01-18T16:00:43.153Z,36.37
2023-01-18T16:03:34.103Z,39.23
2023-01-18T16:06:22.261Z,35.30
2023-01-18T16:09:12.461Z,35.50
2023-01-18T16:11:58.216Z,36.20
2023-01-18T16:14:52.755Z,34.50
2023-01-18T16:17:38.100Z,33.17
2023-01-18T16:20:23.169Z,32.23
2023-01-18T16:23:15.181Z,36.00
2023-01-18T16:26:05.037Z,39.40
2023-01-18T16:28:51.662Z,39.20
2023-01-18T16:31:40.732Z,41.50
2023-01-18T16:34:26.273Z,38.57
2023-01-18T16:37:11.490Z,39.33
2023-01-18T16:39:56.861Z,38.70
2023-01-18T16:43:02.583Z,33.67
2023-01-18T16:45:50.118Z,33.60
2023-01-18T16:48:35.588Z,32.90
2023-01-18T16:51:20.906Z,32.60
2023-01-18T16:54:05.958Z,33.73
2023-01-18T16:56:50.992Z,39.73
2023-01-18T16:59:35.773Z,37.90
2023-01-18T17:02:20.786Z,35.00
2023-01-18T17:05:06.705Z,38.93
2023-01-18T17:07:52.375Z,40.60
2023-01-18T17:10:39.559Z,36.83
2023-01-18T17:13:24.886Z,37.57
2023-01-18T17:16:14.198Z,43.00
2023-01-18T17:18:59.636Z,37.73
2023-01-18T17:21:46.298Z,42.77
2023-01-18T17:24:32.207Z,41.33
2023-01-18T17:27:17.239Z,40.43
2023-01-18T17:30:02.277Z,44.37
2023-01-18T17:32:47.603Z,38.13
2023-01-18T17:35:32.518Z,41.10
2023-01-18T17:38:24.330Z,40.90
2023-01-18T17:41:22.948Z,39.00
2023-01-18T17:44:08.952Z,40.03
2023-01-18T17:46:54.226Z,42.37
2023-01-18T17:49:39.443Z,39.00
2023-01-18T17:52:25.366Z,37.00
2023-01-18T17:55:12.757Z,38.33
2023-01-18T17:57:57.840Z,38.40
2023-01-18T18:00:45.345Z,36.07
2023-01-18T18:03:30.334Z,40.53
2023-01-18T18:06:26.153Z,39.57
2023-01-18T18:09:15.462Z,41.73
2023-01-18T18:12:00.179Z,35.03
2023-01-18T18:14:45.782Z,39.47
2023-01-18T18:17:32.017Z,34.47
2023-01-18T18:20:17.682Z,37.20
2023-01-18T18:23:03.244Z,37.27
2023-01-18T18:25:48.969Z,36.77
2023-01-18T18:28:34.194Z,36.07
2023-01-18T18:31:19.073Z,37.90
2023-01-18T18:34:05.326Z,36.47
2023-01-18T18:36:50.222Z,36.27
2023-01-18T18:39:35.160Z,37.10
2023-01-18T18:42:20.514Z,37.57
2023-01-18T18:45:05.941Z,35.43
2023-01-18T18:47:51.849Z,36.63
2023-01-18T18:50:36.657Z,38.27
2023-01-18T18:53:29.468Z,37.80
2023-01-18T18:56:18.581Z,38.90
2023-01-18T18:59:03.943Z,40.90
2023-01-18T19:01:49.112Z,39.50
2023-01-18T19:04:34.440Z,37.03
2023-01-18T19:07:19.776Z,37.40
2023-01-18T19:10:05.942Z,39.80
2023-01-18T19:12:51.228Z,39.47
2023-01-18T19:15:37.067Z,35.07
2023-01-18T19:18:22.718Z,36.43
2023-01-18T19:21:07.955Z,33.63
2023-01-18T19:23:52.838Z,40.37
2023-01-18T19:26:38.369Z,34.50
2023-01-18T19:29:23.157Z,37.77
2023-01-18T19:32:08.522Z,35.00
2023-01-18T19:34:53.862Z,35.73
2023-01-18T19:37:39.302Z,32.37
2023-01-18T19:40:24.133Z,29.50
2023-01-18T19:43:09.543Z,31.97
2023-01-18T19:45:54.610Z,30.43
2023-01-18T19:48:39.822Z,31.80
2023-01-18T19:51:25.202Z,31.20
2023-01-18T19:54:10.395Z,29.67
2023-01-18T19:56:55.338Z,28.37
2023-01-18T19:59:40.717Z,33.80
2023-01-18T20:02:26.469Z,30.90
2023-01-18T20:05:11.873Z,29.43
2023-01-18T20:07:57.239Z,32.40
2023-01-18T20:10:42.755Z,28.00
2023-01-18T20:13:27.775Z,29.27
2023-01-18T20:16:13.172Z,30.87
2023-01-18T20:18:58.672Z,29.87
2023-01-18T20:21:43.691Z,28.43
2023-01-18T20:24:29.179Z,27.03
2023-01-18T20:27:16.595Z,27.47
2023-01-18T20:30:01.770Z,31.70
2023-01-18T20:32:47.573Z,27.20
2023-01-18T20:35:32.449Z,28.97
2023-01-18T20:38:17.793Z,27.37
2023-01-18T20:41:02.613Z,27.73
2023-01-18T20:43:47.529Z,23.67
2023-01-18T20:46:32.559Z,24.27
2023-01-18T20:49:20.455Z,26.03
2023-01-18T20:52:06.800Z,27.00
2023-01-18T20:54:52.490Z,25.13
2023-01-18T20:57:37.843Z,23.63
2023-01-18T21:00:23.361Z,26.43
2023-01-18T21:03:10.470Z,23.00
2023-01-18T21:05:55.545Z,23.77
2023-01-18T21:08:40.430Z,21.90
2023-01-18T21:11:25.573Z,24.07
2023-01-18T21:14:10.785Z,23.50
2023-01-18T21:16:55.656Z,22.10
2023-01-18T21:19:40.707Z,20.07
2023-01-18T21:22:25.581Z,21.07
2023-01-18T21:25:10.465Z,24.00
2023-01-18T21:27:55.885Z,22.03
2023-01-18T21:30:40.850Z,21.90
2023-01-18T21:33:26.728Z,21.63
2023-01-18T21:36:14.237Z,22.73
2023-01-18T21:38:59.415Z,21.30
2023-01-18T21:41:45.229Z,21.03
2023-01-18T21:44:30.558Z,20.27
2023-01-18T21:47:17.790Z,18.83
2023-01-18T21:50:17.186Z,19.97
2023-01-18T21:53:02.881Z,19.97
2023-01-18T21:55:48.546Z,20.80
2023-01-18T21:58:33.718Z,19.50
2023-01-18T22:01:30.644Z,18.17
2023-01-18T22:04:16.062Z,21.00
2023-01-18T22:07:01.560Z,20.13
2023-01-18T22:10:02.652Z,19.97
2023-01-18T22:12:48.883Z,20.97
2023-01-18T22:15:33.639Z,20.57
2023-01-18T22:18:18.499Z,22.60
2023-01-18T22:21:03.573Z,22.03
2023-01-18T22:23:48.888Z,22.97
2023-01-18T22:26:36.280Z,21.40
2023-01-18T22:29:21.578Z,22.03
2023-01-18T22:32:07.057Z,21.53
2023-01-18T22:34:52.542Z,21.83
2023-01-18T22:37:37.481Z,21.70
2023-01-18T22:40:22.360Z,20.37
2023-01-18T22:43:07.697Z,21.57
2023-01-18T22:45:56.303Z,21.37
2023-01-18T22:48:42.935Z,21.63
2023-01-18T22:51:28.207Z,21.80
2023-01-18T22:54:13.341Z,20.80
2023-01-18T22:56:58.589Z,22.70
2023-01-18T22:59:43.531Z,22.73
2023-01-18T23:02:28.430Z,23.20
2023-01-18T23:05:13.390Z,23.80
2023-01-18T23:07:58.809Z,21.23
2023-01-18T23:10:43.845Z,21.00
2023-01-18T23:13:28.635Z,24.43
2023-01-18T23:16:14.484Z,23.20
2023-01-18T23:18:59.791Z,22.83
2023-01-18T23:21:44.716Z,23.50
2023-01-18T23:24:29.917Z,26.10
2023-01-18T23:27:14.932Z,23.90
2023-01-18T23:30:00.437Z,23.87
2023-01-18T23:32:45.947Z,29.40
2023-01-18T23:35:31.197Z,21.43
2023-01-18T23:38:16.569Z,25.20
2023-01-18T23:41:01.939Z,23.77
2023-01-18T23:43:47.181Z,24.53
2023-01-18T23:46:32.619Z,24.20
2023-01-18T23:49:17.960Z,26.27
2023-01-18T23:52:03.348Z,26.00
2023-01-18T23:54:48.715Z,25.50
2023-01-18T23:57:33.591Z,22.23
